sim
Sign-in with your pilot id or email,
or register
Callsign
Passwort

Schedule Details

Flight Number: RYR5468
Departure: Madrid Barajas Airport (LEMD) at 10:00
Arrival: Fuerteventura Airport (GCFV) at 12:45
Route: Ryanair Passenger Schedule. Enter filed route here before submitting Pirep.

Weather Information
Getting current METAR information for LEMD 212230Z 01005KT 340V060 9999 SCT048 11/05 Q1009 NOSIG
Getting current METAR information for GCFV 212230Z AUTO 33007KT 300V360 9999 BKN027 19/13 Q1015

Schedule Frequency

Route Map